createdAt,value
2022-09-15T00:00:30.835Z,10.26
2022-09-15T00:03:33.822Z,10.43
2022-09-15T00:06:37.429Z,10.64
2022-09-15T00:09:40.395Z,10.82
2022-09-15T00:12:43.356Z,10.96
2022-09-15T00:15:46.957Z,11.11
2022-09-15T00:18:50.763Z,11.16
2022-09-15T00:21:53.755Z,11.15
2022-09-15T00:24:56.724Z,11.09
2022-09-15T00:27:59.964Z,10.96
2022-09-15T00:31:07.323Z,10.91
2022-09-15T00:34:13.329Z,10.90
2022-09-15T00:37:16.298Z,10.89
2022-09-15T00:40:19.382Z,10.81
2022-09-15T00:43:42.352Z,10.72
2022-09-15T00:47:04.061Z,10.62
2022-09-15T00:50:18.040Z,10.54
2022-09-15T00:53:21.991Z,10.46
2022-09-15T00:56:26.020Z,10.44
2022-09-15T00:59:32.490Z,10.52
2022-09-15T01:02:37.952Z,10.60
2022-09-15T01:05:46.762Z,10.66
2022-09-15T01:08:59.066Z,10.65
2022-09-15T01:12:03.281Z,10.62
2022-09-15T01:15:06.878Z,10.58
2022-09-15T01:18:20.519Z,10.65
2022-09-15T01:21:34.527Z,10.69
2022-09-15T01:24:44.067Z,10.69
2022-09-15T01:27:49.958Z,10.79
2022-09-15T01:31:06.541Z,10.96
2022-09-15T01:34:16.763Z,11.08
2022-09-15T01:37:27.599Z,11.06
2022-09-15T01:40:36.273Z,11.15
2022-09-15T01:44:07.292Z,11.36
2022-09-15T01:47:13.362Z,11.46
2022-09-15T01:50:21.672Z,11.59
2022-09-15T01:53:25.337Z,11.73
2022-09-15T01:56:28.378Z,11.93
2022-09-15T01:59:31.363Z,12.18
2022-09-15T02:02:39.032Z,12.37
2022-09-15T02:05:45.586Z,12.53
2022-09-15T02:08:57.967Z,12.58
2022-09-15T02:12:15.168Z,12.65
2022-09-15T02:15:26.727Z,12.76
2022-09-15T02:18:51.849Z,12.89
2022-09-15T02:22:11.231Z,13.13
2022-09-15T02:25:21.124Z,13.34
2022-09-15T02:28:29.398Z,13.53
2022-09-15T02:31:34.199Z,13.72
2022-09-15T02:34:39.050Z,14.15
2022-09-15T02:37:42.114Z,14.31
2022-09-15T02:40:45.858Z,14.52
2022-09-15T02:43:50.101Z,14.52
2022-09-15T02:46:53.241Z,14.15
2022-09-15T02:49:57.660Z,13.62
2022-09-15T02:53:00.698Z,13.47
2022-09-15T02:56:08.565Z,13.53
2022-09-15T02:59:11.660Z,13.76
2022-09-15T03:02:14.768Z,13.87
2022-09-15T03:05:20.162Z,14.03
2022-09-15T03:08:23.190Z,14.34
2022-09-15T03:11:29.364Z,14.77
2022-09-15T03:14:33.290Z,14.97
2022-09-15T03:17:38.282Z,15.09
2022-09-15T03:20:41.260Z,15.09
2022-09-15T03:23:44.213Z,15.08
2022-09-15T03:26:48.875Z,15.06
2022-09-15T03:29:51.872Z,15.04
2022-09-15T03:32:54.912Z,14.96
2022-09-15T03:35:58.214Z,14.72
2022-09-15T03:39:01.129Z,14.41
2022-09-15T03:42:04.708Z,14.13
2022-09-15T03:45:08.179Z,13.96
2022-09-15T03:48:11.193Z,13.84
2022-09-15T03:51:14.227Z,13.72
2022-09-15T03:54:17.965Z,13.72
2022-09-15T03:57:20.990Z,13.72
2022-09-15T04:00:24.089Z,13.68
2022-09-15T04:03:27.120Z,13.68
2022-09-15T04:06:30.210Z,13.67
2022-09-15T04:09:33.287Z,13.59
2022-09-15T04:12:37.046Z,13.46
2022-09-15T04:15:39.961Z,13.32
2022-09-15T04:18:43.307Z,13.22
2022-09-15T04:21:48.019Z,13.08
2022-09-15T04:24:51.205Z,12.99
2022-09-15T04:27:54.570Z,12.83
2022-09-15T04:31:08.125Z,12.73
2022-09-15T04:34:11.199Z,12.58
2022-09-15T04:37:14.169Z,12.44
2022-09-15T04:40:17.221Z,12.30
2022-09-15T04:43:20.243Z,12.32
2022-09-15T04:46:23.376Z,12.31
2022-09-15T04:49:26.677Z,12.31
2022-09-15T04:52:29.642Z,12.35
2022-09-15T04:55:36.160Z,12.34
2022-09-15T04:58:44.186Z,12.34
2022-09-15T05:01:48.218Z,12.21
2022-09-15T05:04:52.177Z,12.12
2022-09-15T05:07:55.280Z,11.97
2022-09-15T05:11:07.360Z,12.00
2022-09-15T05:14:11.882Z,11.95
2022-09-15T05:17:14.909Z,11.91
2022-09-15T05:20:18.370Z,11.86
2022-09-15T05:23:21.306Z,11.84
2022-09-15T05:26:29.841Z,11.83
2022-09-15T05:29:33.177Z,11.83
2022-09-15T05:32:36.284Z,11.80
2022-09-15T05:35:39.696Z,11.79
2022-09-15T05:38:43.046Z,11.80
2022-09-15T05:41:45.951Z,11.88
2022-09-15T05:44:48.889Z,11.99
2022-09-15T05:47:51.998Z,12.08
2022-09-15T05:50:56.336Z,12.10
2022-09-15T05:53:59.323Z,11.98
2022-09-15T05:57:02.380Z,11.93
2022-09-15T06:00:05.900Z,11.94
2022-09-15T06:03:16.581Z,11.95
2022-09-15T06:06:20.485Z,11.94
2022-09-15T06:09:23.516Z,12.01
2022-09-15T06:12:27.891Z,12.07
2022-09-15T06:15:33.128Z,12.04
2022-09-15T06:18:37.894Z,11.97
2022-09-15T06:21:40.872Z,11.90
2022-09-15T06:24:43.848Z,11.87
2022-09-15T06:27:50.409Z,11.90
2022-09-15T06:30:53.427Z,11.87
2022-09-15T06:33:58.267Z,11.85
2022-09-15T06:37:01.013Z,11.98
2022-09-15T06:40:05.661Z,11.92
2022-09-15T06:43:08.748Z,11.93
2022-09-15T06:46:14.174Z,12.01
2022-09-15T06:49:17.483Z,12.10
2022-09-15T06:52:20.665Z,12.09
2022-09-15T06:55:23.670Z,12.15
2022-09-15T06:58:26.709Z,12.22
2022-09-15T07:01:32.092Z,12.27
2022-09-15T07:04:38.921Z,12.30
2022-09-15T07:07:42.051Z,12.23
2022-09-15T07:10:47.967Z,12.19
2022-09-15T07:13:51.727Z,12.14
2022-09-15T07:16:54.894Z,12.09
2022-09-15T07:19:58.228Z,12.09
2022-09-15T07:23:01.269Z,12.17
2022-09-15T07:26:13.479Z,12.27
2022-09-15T07:29:16.517Z,12.36
2022-09-15T07:32:19.499Z,12.49
2022-09-15T07:35:22.535Z,12.56
2022-09-15T07:38:25.859Z,12.53
2022-09-15T07:41:30.982Z,12.50
2022-09-15T07:44:34.033Z,12.46
2022-09-15T07:47:37.117Z,12.41
2022-09-15T07:50:40.162Z,12.39
2022-09-15T07:53:44.960Z,12.47
2022-09-15T07:56:48.025Z,12.55
2022-09-15T07:59:50.968Z,12.60
2022-09-15T08:02:54.147Z,12.62
2022-09-15T08:06:01.961Z,12.69
2022-09-15T08:09:05.527Z,12.70
2022-09-15T08:12:09.616Z,12.75
2022-09-15T08:15:12.692Z,12.77
2022-09-15T08:18:16.479Z,12.83
2022-09-15T08:21:21.528Z,12.90
2022-09-15T08:24:24.907Z,12.89
2022-09-15T08:27:27.994Z,12.85
2022-09-15T08:30:31.196Z,12.72
2022-09-15T08:33:34.584Z,12.68
2022-09-15T08:36:37.930Z,12.72
2022-09-15T08:39:41.844Z,12.77
2022-09-15T08:42:47.669Z,12.75
2022-09-15T08:45:59.442Z,12.68
2022-09-15T08:49:30.590Z,12.58
2022-09-15T08:52:46.804Z,12.49
2022-09-15T08:56:06.241Z,12.32
2022-09-15T08:59:16.324Z,12.17
2022-09-15T09:02:48.425Z,12.09
2022-09-15T09:06:11.504Z,12.08
2022-09-15T09:09:20.425Z,12.07
2022-09-15T09:12:46.496Z,12.08
2022-09-15T09:16:01.545Z,12.06
2022-09-15T09:19:37.565Z,11.98
2022-09-15T09:22:43.612Z,11.85
2022-09-15T09:25:47.002Z,11.75
2022-09-15T09:29:21.878Z,11.76
2022-09-15T09:32:28.410Z,11.67
2022-09-15T09:36:04.417Z,11.59
2022-09-15T09:39:12.534Z,11.48
2022-09-15T09:42:19.121Z,11.45
2022-09-15T09:45:23.343Z,11.46
2022-09-15T09:48:28.560Z,11.52
2022-09-15T09:51:56.726Z,11.53
2022-09-15T09:55:19.389Z,11.54
2022-09-15T09:58:25.979Z,11.56
2022-09-15T10:01:29.030Z,11.55
2022-09-15T10:04:32.146Z,11.49
2022-09-15T10:07:40.891Z,11.40
2022-09-15T10:10:54.794Z,11.32
2022-09-15T10:13:57.970Z,11.21
2022-09-15T10:17:14.047Z,11.15
2022-09-15T10:20:33.181Z,11.07
2022-09-15T10:23:36.975Z,10.96
2022-09-15T10:26:40.449Z,10.93
2022-09-15T10:29:43.543Z,10.90
2022-09-15T10:32:46.590Z,10.89
2022-09-15T10:35:49.936Z,10.87
2022-09-15T10:39:15.981Z,10.86
2022-09-15T10:42:41.798Z,10.84
2022-09-15T10:45:56.186Z,10.80
2022-09-15T10:49:23.500Z,10.73
2022-09-15T10:52:26.481Z,10.73
2022-09-15T10:55:52.792Z,10.69
2022-09-15T10:58:57.336Z,10.67
2022-09-15T11:02:09.318Z,10.64
2022-09-15T11:05:49.616Z,10.61
2022-09-15T11:09:02.939Z,10.58
2022-09-15T11:12:45.413Z,10.56
2022-09-15T11:16:18.604Z,10.54
2022-09-15T11:19:27.405Z,10.53
2022-09-15T11:22:53.718Z,10.55
2022-09-15T11:26:12.958Z,10.49
2022-09-15T11:29:24.879Z,10.50
2022-09-15T11:32:37.240Z,10.52
2022-09-15T11:35:43.268Z,10.51
2022-09-15T11:39:07.476Z,10.57
2022-09-15T11:42:17.921Z,10.57
2022-09-15T11:45:29.531Z,10.60
2022-09-15T11:48:36.979Z,10.62
2022-09-15T11:51:51.211Z,10.62
2022-09-15T11:55:04.196Z,10.62
2022-09-15T11:58:17.394Z,10.61
2022-09-15T12:01:26.400Z,10.60
2022-09-15T12:05:16.885Z,10.59
2022-09-15T12:08:30.150Z,10.59
2022-09-15T12:11:37.653Z,10.57
2022-09-15T12:14:47.179Z,10.55
2022-09-15T12:17:56.491Z,10.58
2022-09-15T12:21:05.827Z,10.61
2022-09-15T12:24:18.876Z,10.55
2022-09-15T12:27:22.828Z,10.51
2022-09-15T12:30:43.351Z,10.51
2022-09-15T12:33:54.787Z,10.46
2022-09-15T12:37:14.850Z,10.48
2022-09-15T12:40:37.795Z,10.44
2022-09-15T12:43:41.257Z,10.40
2022-09-15T12:46:52.509Z,10.39
2022-09-15T12:50:01.733Z,10.36
2022-09-15T12:53:15.258Z,10.34
2022-09-15T12:56:32.629Z,10.38
2022-09-15T12:59:35.760Z,10.33
2022-09-15T13:02:48.552Z,10.34
2022-09-15T13:05:55.009Z,10.32
2022-09-15T13:09:06.917Z,10.30
2022-09-15T13:12:12.840Z,10.25
2022-09-15T13:15:18.482Z,10.22
2022-09-15T13:18:22.924Z,10.16
2022-09-15T13:21:26.280Z,10.15
2022-09-15T13:24:45.067Z,10.14
2022-09-15T13:27:51.030Z,10.14
2022-09-15T13:31:30.368Z,10.17
2022-09-15T13:35:21.154Z,10.13
2022-09-15T13:38:41.847Z,10.10
2022-09-15T13:42:14.399Z,10.06
2022-09-15T13:45:32.831Z,10.01
2022-09-15T13:48:44.944Z,9.96
2022-09-15T13:52:00.386Z,9.94
2022-09-15T13:55:15.079Z,9.93
2022-09-15T14:01:46.746Z,9.82
2022-09-15T14:04:52.519Z,9.81
2022-09-15T14:08:06.239Z,9.80
2022-09-15T14:11:15.824Z,9.79
2022-09-15T14:14:38.552Z,9.79
2022-09-15T14:17:46.480Z,9.76
2022-09-15T14:29:32.501Z,9.59
2022-09-15T14:42:45.859Z,9.50
2022-09-15T14:50:57.875Z,9.50
2022-09-15T14:58:54.769Z,9.59
2022-09-15T15:07:39.332Z,9.62
2022-09-15T15:11:09.075Z,9.57
2022-09-15T15:14:14.147Z,9.49
2022-09-15T15:17:45.362Z,9.47
2022-09-15T15:20:50.647Z,9.48
2022-09-15T15:23:54.806Z,9.51
2022-09-15T15:26:58.142Z,9.55
2022-09-15T15:30:30.178Z,9.56
2022-09-15T15:33:33.535Z,9.56
2022-09-15T15:36:37.143Z,9.58
2022-09-15T15:39:40.214Z,9.60
2022-09-15T15:43:26.851Z,9.71
2022-09-15T15:46:51.158Z,9.70
2022-09-15T15:50:14.530Z,9.72
2022-09-15T15:53:17.771Z,9.70
2022-09-15T15:56:26.139Z,9.70
2022-09-15T15:59:29.366Z,9.72
2022-09-15T16:02:32.346Z,9.73
2022-09-15T16:05:35.439Z,9.76
2022-09-15T16:08:42.646Z,9.76
2022-09-15T16:11:46.358Z,9.73
2022-09-15T16:14:49.376Z,9.71
2022-09-15T16:17:52.387Z,9.68
2022-09-15T16:20:55.330Z,9.67
2022-09-15T16:23:58.403Z,9.69
2022-09-15T16:27:01.538Z,9.68
2022-09-15T16:30:08.853Z,9.71
2022-09-15T16:33:16.632Z,9.76
2022-09-15T16:36:19.875Z,9.72
2022-09-15T16:39:22.974Z,9.73
2022-09-15T16:42:26.100Z,9.71
2022-09-15T16:45:40.559Z,9.71
2022-09-15T16:48:44.950Z,9.72
2022-09-15T16:51:48.013Z,9.71
2022-09-15T16:54:51.329Z,9.71
2022-09-15T16:57:55.100Z,9.79
2022-09-15T17:00:58.444Z,9.75
2022-09-15T17:04:02.693Z,9.73
2022-09-15T17:07:05.733Z,9.74
2022-09-15T17:10:09.219Z,9.76
2022-09-15T17:13:26.409Z,9.75
2022-09-15T17:16:33.099Z,9.65
2022-09-15T17:19:36.071Z,9.60
2022-09-15T17:22:39.342Z,9.56
2022-09-15T17:25:44.831Z,9.50
2022-09-15T17:28:48.292Z,9.54
2022-09-15T17:31:51.418Z,9.59
2022-09-15T17:34:54.463Z,9.64
2022-09-15T17:37:57.529Z,9.67
2022-09-15T17:41:00.799Z,9.68
2022-09-15T17:44:04.051Z,9.68
2022-09-15T17:47:07.334Z,9.73
2022-09-15T17:50:11.539Z,9.70
2022-09-15T17:53:23.392Z,9.73
2022-09-15T17:56:26.430Z,9.67
2022-09-15T17:59:29.876Z,9.67
2022-09-15T18:02:33.186Z,9.65
2022-09-15T18:05:37.495Z,9.67
2022-09-15T18:08:40.687Z,9.65
2022-09-15T18:11:43.915Z,9.65
2022-09-15T18:14:47.086Z,9.61
2022-09-15T18:17:52.432Z,9.53
2022-09-15T18:20:58.367Z,9.47
2022-09-15T18:24:01.508Z,9.44
2022-09-15T18:27:04.547Z,9.43
2022-09-15T18:30:08.414Z,9.42
2022-09-15T18:33:23.509Z,9.49
2022-09-15T18:36:26.468Z,9.55
2022-09-15T18:39:30.116Z,9.51
2022-09-15T18:42:33.151Z,9.47
2022-09-15T18:45:36.253Z,9.44
2022-09-15T18:48:39.347Z,9.44
2022-09-15T18:51:57.553Z,9.45
2022-09-15T18:55:00.646Z,9.49
2022-09-15T18:58:03.795Z,9.52
2022-09-15T19:01:07.222Z,9.54
2022-09-15T19:04:10.431Z,9.45
2022-09-15T19:07:13.630Z,9.38
2022-09-15T19:10:20.017Z,9.41
2022-09-15T19:13:23.011Z,9.35
2022-09-15T19:16:46.780Z,9.28
2022-09-15T19:19:49.406Z,9.30
2022-09-15T19:22:52.425Z,9.41
2022-09-15T19:25:55.441Z,9.35
2022-09-15T19:28:58.984Z,9.22
2022-09-15T19:32:04.328Z,9.20
2022-09-15T19:35:08.584Z,9.21
2022-09-15T19:38:11.587Z,9.25
2022-09-15T19:41:16.967Z,9.24
2022-09-15T19:44:20.081Z,9.19
2022-09-15T19:47:23.193Z,9.12
2022-09-15T19:50:26.195Z,9.10
2022-09-15T19:53:29.224Z,9.14
2022-09-15T19:56:32.832Z,9.14
2022-09-15T19:59:36.058Z,9.13
2022-09-15T20:02:39.838Z,9.11
2022-09-15T20:05:42.955Z,9.10
2022-09-15T20:08:47.740Z,9.13
2022-09-15T20:11:50.747Z,9.19
2022-09-15T20:14:53.820Z,9.23
2022-09-15T20:17:57.166Z,9.23
2022-09-15T20:21:03.425Z,9.14
2022-09-15T20:24:07.071Z,9.03
2022-09-15T20:27:10.095Z,9.00
2022-09-15T20:30:13.113Z,8.97
2022-09-15T20:33:16.132Z,8.95
2022-09-15T20:36:25.150Z,8.94
2022-09-15T20:39:28.099Z,8.91
2022-09-15T20:42:31.119Z,8.83
2022-09-15T20:45:37.232Z,8.77
2022-09-15T20:48:40.922Z,8.75
2022-09-15T20:51:44.092Z,8.71
2022-09-15T20:54:47.129Z,8.71
2022-09-15T20:57:52.910Z,8.79
2022-09-15T21:01:15.605Z,8.88
2022-09-15T21:04:21.261Z,8.90
2022-09-15T21:07:24.340Z,8.94
2022-09-15T21:10:27.641Z,8.94
2022-09-15T21:13:32.642Z,9.00
2022-09-15T21:17:09.657Z,9.02
2022-09-15T21:24:46.694Z,8.87
2022-09-15T21:28:19.458Z,8.78
2022-09-15T21:31:51.763Z,8.79
2022-09-15T21:35:28.565Z,8.78
2022-09-15T21:42:27.239Z,8.67
2022-09-15T21:46:10.151Z,8.65
2022-09-15T21:53:11.676Z,8.60
2022-09-15T21:56:33.645Z,8.59
2022-09-15T21:59:48.153Z,8.51
2022-09-15T22:03:24.333Z,8.49
2022-09-15T22:10:14.934Z,8.61
2022-09-15T22:13:49.088Z,8.57
2022-09-15T22:17:03.235Z,8.65
2022-09-15T22:20:53.479Z,8.69
2022-09-15T22:24:16.788Z,8.67
2022-09-15T22:28:18.915Z,8.65
2022-09-15T22:39:57.176Z,8.76
2022-09-15T22:43:07.334Z,8.67
2022-09-15T22:46:11.483Z,8.56
2022-09-15T22:49:14.470Z,8.59
2022-09-15T22:52:17.546Z,8.62
2022-09-15T22:55:20.518Z,8.60
2022-09-15T22:58:23.749Z,8.60
2022-09-15T23:01:30.594Z,8.65
2022-09-15T23:04:33.581Z,8.66
2022-09-15T23:07:36.576Z,8.75
2022-09-15T23:10:39.515Z,8.72
2022-09-15T23:13:42.786Z,8.68
2022-09-15T23:16:46.002Z,8.74
2022-09-15T23:19:49.169Z,8.86
2022-09-15T23:22:53.654Z,8.90
2022-09-15T23:25:57.194Z,8.85
2022-09-15T23:29:00.166Z,8.81
2022-09-15T23:32:03.382Z,8.80
2022-09-15T23:35:06.747Z,8.90
2022-09-15T23:38:09.744Z,9.02
2022-09-15T23:41:14.034Z,9.13
2022-09-15T23:44:17.016Z,9.24
2022-09-15T23:47:20.039Z,9.26
2022-09-15T23:50:23.364Z,9.29
2022-09-15T23:53:26.455Z,9.30
2022-09-15T23:56:30.249Z,9.30
2022-09-15T23:59:33.156Z,9.30
